KBGMKMSV

Guest
Details From KBGM - Greater Binghamton Edwin A Link Fld
To KMSV - Sullivan Co Intl
Flight Number -
Tags Generated
Created
Modified
Stats Distance 61 nm / 113 km
Max Altitude 0 ft / 0 m
Waypoints 2
Social Downloads 2
Likes 0
Share VATSIM

Download

Looking for another format? Having issues loading an existing format? Contact us
Advertisement - Login to hide

Notes

Generated

Route

KBGM KMSV

ID Type Via Altitude Latitude Longitude Leg Dist Tot Dist Heading (true) Name
O KBGM APT - 0 ft / 0 m 42.20505˚ -75.98888˚ - 0 nm - -
O KMSV APT - 0 ft / 0 m 41.70855˚ -74.80196˚ 60 nm 60 nm 119° / 120° -

Altitude Profile

Advertisement - Login to hide

KBGM

Details ICAO KBGM (BGM)
Name GREATER BINGHAMTON EDWIN A LINK FLD
Region United States
Timezone America/New_York (UTC-5.0)
Stats Elevation 1,636 ft / 499 m (AMSL)
Location 42.208187° -75.980322°
Runways 2
Magnetic Variation 12.205° W

METAR

KBGM 171653Z 05005KT 10SM OVC012 M06/M10 A3019 RMK AO2 SLP249 T10611100

Decode

TAF

KBGM 171451Z 1715/1812 VRB03KT P6SM OVC012 FM172000 15005KT P6SM OVC035 TEMPO 1720/1722 OVC025 FM180300 17005KT P6SM OVC015

Decode

Departure Runways

ID Width Length Bearing (true) Bearing (mag) Surface Threshold Offset Overrun Length
10 150 ft / 46 m 5,538 ft / 1,688 m 86.54° 98.74° Asphalt 0 ft / 0 m 0 ft / 0 m
16 150 ft / 46 m 7,100 ft / 2,164 m 148.41° 160.61° Asphalt 400 ft / 122 m 0 ft / 0 m
28 150 ft / 46 m 5,538 ft / 1,688 m 266.55° 278.75° Asphalt 0 ft / 0 m 0 ft / 0 m
34 150 ft / 46 m 7,100 ft / 2,164 m 328.42° 340.62° Asphalt 400 ft / 122 m 0 ft / 0 m

KMSV

Details ICAO KMSV
Name SULLIVAN CO INTL
Region United States
Timezone America/New_York (UTC-5.0)
Stats Elevation 1,403 ft / 428 m (AMSL)
Location 41.701650° -74.795014°
Runways 1
Magnetic Variation 12.728° W

METAR

KMSV 171656Z AUTO 32004KT 10SM OVC046 M02/M07 A3020 RMK AO2 SLP248 T10171067 FZRANO

Decode

TAF

Not found

Destination Runways

ID Width Length Bearing (true) Bearing (mag) Surface Threshold Offset Overrun Length
15 150 ft / 46 m 6,299 ft / 1,920 m 143.04° 155.77° Asphalt 300 ft / 91 m 0 ft / 0 m
33 150 ft / 46 m 6,299 ft / 1,920 m 323.05° 335.78° Asphalt 300 ft / 91 m 0 ft / 0 m

Approach Navaids

Runway Type Ident Frequency Range Bearing (true) Bearing (mag) Slope Elevation
15 Localiser IMSV 109.10 MHz 18 nm / 33 km 143.05° 155.78° - 1,403 ft / 428 m (AMSL)
15 Glidescope IMSV 109.10 MHz 10 nm / 19 km 143.04° 155.77° 3.00° 1,403 ft / 428 m (AMSL)